createdAt,value
2022-10-09T00:03:07.309Z,101243.44
2022-10-09T00:08:08.752Z,101242.75
2022-10-09T00:13:10.961Z,101242.06
2022-10-09T00:18:15.518Z,101233.75
2022-10-09T00:23:18.332Z,101233.84
2022-10-09T00:28:21.184Z,101231.94
2022-10-09T00:33:23.015Z,101232.88
2022-10-09T00:38:24.531Z,101222.78
2022-10-09T00:43:42.385Z,101227.94
2022-10-09T00:48:44.203Z,101224.69
2022-10-09T00:53:45.648Z,101219.72
2022-10-09T00:58:51.700Z,101223.16
2022-10-09T01:03:53.248Z,101217.25
2022-10-09T01:09:05.073Z,101217.31
2022-10-09T01:14:19.486Z,101205.53
2022-10-09T01:19:45.823Z,101204.75
2022-10-09T01:25:14.462Z,101201.44
2022-10-09T01:30:16.031Z,101191.31
2022-10-09T01:35:18.094Z,101182.91
2022-10-09T01:40:21.439Z,101186.25
2022-10-09T01:45:23.011Z,101188.84
2022-10-09T01:50:32.796Z,101176.81
2022-10-09T01:55:47.111Z,101174.84
2022-10-09T02:00:59.497Z,101170.63
2022-10-09T02:06:03.786Z,101169.94
2022-10-09T02:11:06.417Z,101159.06
2022-10-09T02:16:28.327Z,101163.31
2022-10-09T02:21:40.159Z,101151.56
2022-10-09T02:26:42.591Z,101155.88
2022-10-09T02:31:44.760Z,101155.84
2022-10-09T02:36:47.013Z,101149.09
2022-10-09T02:41:48.447Z,101150.00
2022-10-09T02:46:50.066Z,101137.34
2022-10-09T02:51:51.585Z,101134.81
2022-10-09T02:56:52.993Z,101131.50
2022-10-09T03:01:54.522Z,101130.66
2022-10-09T03:06:56.012Z,101131.59
2022-10-09T03:11:57.564Z,101124.84
2022-10-09T03:16:59.198Z,101123.97
2022-10-09T03:22:00.598Z,101125.66
2022-10-09T03:27:02.109Z,101134.94
2022-10-09T03:32:03.788Z,101129.88
2022-10-09T03:37:05.255Z,101134.13
2022-10-09T03:42:06.777Z,101143.41
2022-10-09T03:47:08.365Z,101140.00
2022-10-09T03:52:09.852Z,101133.25
2022-10-09T03:57:11.287Z,101138.31
2022-10-09T04:02:12.736Z,101137.47
2022-10-09T04:07:14.265Z,101140.00
2022-10-09T04:12:15.821Z,101140.84
2022-10-09T04:17:17.331Z,101134.09
2022-10-09T04:22:18.984Z,101134.09
2022-10-09T04:27:20.445Z,101134.09
2022-10-09T04:32:21.964Z,101131.59
2022-10-09T04:37:23.456Z,101125.66
2022-10-09T04:42:24.917Z,101123.97
2022-10-09T04:47:26.394Z,101126.53
2022-10-09T04:52:27.864Z,101124.84
2022-10-09T04:57:29.761Z,101128.25
2022-10-09T05:02:31.377Z,101118.91
2022-10-09T05:07:32.962Z,101119.75
2022-10-09T05:12:34.436Z,101115.50
2022-10-09T05:17:35.986Z,101112.91
2022-10-09T05:22:37.511Z,101119.66
2022-10-09T05:27:39.569Z,101119.63
2022-10-09T05:32:41.011Z,101120.44
2022-10-09T05:37:44.808Z,101121.28
2022-10-09T05:42:49.671Z,101117.09
2022-10-09T05:47:51.525Z,101115.34
2022-10-09T05:52:52.982Z,101118.72
2022-10-09T05:57:54.524Z,101121.19
2022-10-09T06:02:56.047Z,101123.72
2022-10-09T06:07:57.623Z,101122.72
2022-10-09T06:12:59.074Z,101119.97
2022-10-09T06:18:00.505Z,101113.28
2022-10-09T06:23:01.948Z,101116.03
2022-10-09T06:28:03.434Z,101116.09
2022-10-09T06:33:04.895Z,101114.59
2022-10-09T06:38:06.553Z,101114.22
2022-10-09T06:43:08.228Z,101102.66
2022-10-09T06:48:09.689Z,101110.75
2022-10-09T06:53:11.138Z,101113.09
2022-10-09T06:58:12.578Z,101103.41
2022-10-09T07:03:15.277Z,101102.59
2022-10-09T07:08:16.772Z,101110.47
2022-10-09T07:13:18.195Z,101107.56
2022-10-09T07:18:19.663Z,101093.13
2022-10-09T07:23:21.132Z,101097.03
2022-10-09T07:28:23.731Z,101100.19
2022-10-09T07:33:25.211Z,101099.50
2022-10-09T07:38:26.933Z,101104.06
2022-10-09T07:43:28.981Z,101105.97
2022-10-09T07:48:30.845Z,101096.91
2022-10-09T07:53:35.797Z,101087.66
2022-10-09T07:58:37.502Z,101091.34
2022-10-09T08:03:39.001Z,101083.00
2022-10-09T08:08:40.525Z,101075.09
2022-10-09T08:13:42.998Z,101078.94
2022-10-09T08:18:47.841Z,101080.47
2022-10-09T08:23:55.259Z,101074.75
2022-10-09T08:28:59.941Z,101073.84
2022-10-09T08:34:03.236Z,101079.09
2022-10-09T08:39:04.703Z,101067.88
2022-10-09T08:44:26.789Z,101071.50
2022-10-09T08:49:28.246Z,101062.25
2022-10-09T08:54:38.180Z,101057.19
2022-10-09T08:59:39.901Z,101065.53
2022-10-09T09:05:06.556Z,101054.22
2022-10-09T09:10:31.416Z,101045.38
2022-10-09T09:15:53.434Z,101028.47
2022-10-09T09:20:58.507Z,101035.97
2022-10-09T09:26:01.182Z,101030.13
2022-10-09T09:31:25.458Z,101021.41
2022-10-09T09:36:42.470Z,101013.72
2022-10-09T09:41:44.349Z,101009.47
2022-10-09T09:46:47.639Z,100995.44
2022-10-09T09:51:50.610Z,100985.97
2022-10-09T09:57:18.268Z,100982.56
2022-10-09T10:02:24.227Z,100971.59
2022-10-09T10:07:29.276Z,100958.56
2022-10-09T10:12:30.821Z,100959.94
2022-10-09T10:17:34.822Z,100946.53
2022-10-09T10:22:36.384Z,100935.19
2022-10-09T10:27:41.901Z,100927.66
2022-10-09T10:33:02.196Z,100921.84
2022-10-09T10:38:05.303Z,100916.56
2022-10-09T10:43:09.477Z,100903.88
2022-10-09T10:48:40.128Z,100903.75
2022-10-09T10:53:50.064Z,100886.88
2022-10-09T10:59:04.000Z,100890.31
2022-10-09T11:04:21.338Z,100877.44
2022-10-09T11:09:36.060Z,100870.44
2022-10-09T11:15:06.848Z,100862.03
2022-10-09T11:20:19.384Z,100854.13
2022-10-09T11:25:27.431Z,100858.91
2022-10-09T11:30:37.715Z,100853.72
2022-10-09T11:35:50.215Z,100849.53
2022-10-09T11:40:52.806Z,100845.19
2022-10-09T11:46:00.414Z,100840.25
2022-10-09T11:51:12.654Z,100824.16
2022-10-09T11:56:32.130Z,100817.38
2022-10-09T12:01:42.967Z,100809.88
2022-10-09T12:06:50.959Z,100794.00
2022-10-09T12:11:59.573Z,100784.53
2022-10-09T12:17:01.458Z,100791.69
2022-10-09T12:22:27.349Z,100767.38
2022-10-09T12:27:33.479Z,100775.28
2022-10-09T12:33:02.360Z,100753.78
2022-10-09T12:38:24.201Z,100739.25
2022-10-09T12:43:25.814Z,100733.44
2022-10-09T12:48:29.204Z,100732.63
2022-10-09T12:53:30.799Z,100728.19
2022-10-09T12:58:39.345Z,100716.31
2022-10-09T13:03:43.627Z,100725.78
2022-10-09T13:08:46.334Z,100694.59
2022-10-09T13:13:55.103Z,100693.59
2022-10-09T13:18:59.251Z,100685.31
2022-10-09T13:24:08.094Z,100677.41
2022-10-09T13:29:11.321Z,100661.66
2022-10-09T13:34:14.029Z,100666.25
2022-10-09T13:39:15.697Z,100656.34
2022-10-09T13:44:17.278Z,100643.28
2022-10-09T13:49:18.845Z,100641.69
2022-10-09T13:54:20.363Z,100633.88
2022-10-09T13:59:21.898Z,100633.13
2022-10-09T14:04:23.410Z,100645.19
2022-10-09T14:09:24.950Z,100621.88
2022-10-09T14:14:27.965Z,100613.03
2022-10-09T14:19:29.465Z,100612.53
2022-10-09T14:24:30.979Z,100616.03
2022-10-09T14:29:32.532Z,100596.19
2022-10-09T14:34:33.966Z,100591.66
2022-10-09T14:39:35.675Z,100579.88
2022-10-09T14:44:37.164Z,100586.88
2022-10-09T14:49:42.047Z,100577.56
2022-10-09T14:54:46.225Z,100569.56
2022-10-09T14:59:48.198Z,100560.34
2022-10-09T15:04:51.112Z,100553.00
2022-10-09T15:09:55.167Z,100569.31
2022-10-09T15:14:59.989Z,100555.78
2022-10-09T15:20:01.784Z,100548.22
2022-10-09T15:25:03.299Z,100531.28
2022-10-09T15:30:05.189Z,100531.63
2022-10-09T15:35:07.478Z,100532.69
2022-10-09T15:40:11.687Z,100525.28
2022-10-09T15:45:13.346Z,100527.41
2022-10-09T15:50:17.167Z,100527.97
2022-10-09T15:55:18.694Z,100515.63
2022-10-09T16:00:20.229Z,100519.78
2022-10-09T16:05:29.791Z,100516.16
2022-10-09T16:10:31.505Z,100514.22
2022-10-09T16:15:42.292Z,100510.69
2022-10-09T16:20:47.447Z,100510.66
2022-10-09T16:26:02.696Z,100509.78
2022-10-09T16:31:05.241Z,100512.38
2022-10-09T16:36:24.019Z,100516.72
2022-10-09T16:41:27.205Z,100519.97
2022-10-09T16:51:36.439Z,100523.47
2022-10-09T16:56:39.995Z,100525.41
2022-10-09T17:01:46.107Z,100526.19
2022-10-09T17:06:47.591Z,100526.09
2022-10-09T17:11:49.111Z,100537.91
2022-10-09T17:16:52.847Z,100529.06
2022-10-09T17:21:54.260Z,100534.00
2022-10-09T17:26:55.794Z,100535.53
2022-10-09T17:31:57.249Z,100530.28
2022-10-09T17:36:58.723Z,100530.31
2022-10-09T17:42:00.177Z,100533.91
2022-10-09T17:47:02.772Z,100536.69
2022-10-09T17:52:07.097Z,100534.91
2022-10-09T17:57:12.337Z,100528.69
2022-10-09T18:02:14.255Z,100531.84
2022-10-09T18:07:20.323Z,100530.66
2022-10-09T18:12:22.024Z,100520.28
2022-10-09T18:17:23.517Z,100520.81
2022-10-09T18:22:25.098Z,100518.63
2022-10-09T18:27:29.289Z,100507.06
2022-10-09T18:32:31.499Z,100502.94
2022-10-09T18:37:34.478Z,100504.63
2022-10-09T18:42:36.408Z,100507.91
2022-10-09T18:47:41.129Z,100513.56
2022-10-09T18:52:43.830Z,100497.16
2022-10-09T18:57:47.333Z,100504.34
2022-10-09T19:02:48.756Z,100494.53
2022-10-09T19:07:50.585Z,100488.84
2022-10-09T19:12:54.295Z,100472.72
2022-10-09T19:17:55.966Z,100474.69
2022-10-09T19:22:57.444Z,100478.00
2022-10-09T19:27:59.034Z,100465.03
2022-10-09T19:33:00.541Z,100467.78
2022-10-09T19:38:03.222Z,100467.44
2022-10-09T19:43:04.735Z,100465.50
2022-10-09T19:48:06.737Z,100460.03
2022-10-09T19:53:08.227Z,100461.31
2022-10-09T19:58:09.754Z,100469.28
2022-10-09T20:03:11.341Z,100466.19
2022-10-09T20:08:15.531Z,100460.84
2022-10-09T20:13:16.987Z,100461.81
2022-10-09T20:18:18.446Z,100453.38
2022-10-09T20:23:20.615Z,100453.56
2022-10-09T20:28:22.104Z,100459.16
2022-10-09T20:33:23.689Z,100455.59
2022-10-09T20:38:26.061Z,100468.16
2022-10-09T20:43:27.612Z,100463.66
2022-10-09T20:48:29.039Z,100472.56
2022-10-09T20:53:30.871Z,100474.78
2022-10-09T20:58:32.583Z,100468.44
2022-10-09T21:03:35.493Z,100471.41
2022-10-09T21:08:37.793Z,100470.91
2022-10-09T21:13:42.040Z,100473.84
2022-10-09T21:18:43.626Z,100477.53
2022-10-09T21:23:46.104Z,100473.56
2022-10-09T21:28:47.931Z,100487.53
2022-10-09T21:33:50.565Z,100487.00
2022-10-09T21:38:52.067Z,100488.13
2022-10-09T21:43:53.574Z,100489.19
2022-10-09T21:48:55.085Z,100492.69
2022-10-09T21:53:56.572Z,100487.81
2022-10-09T21:58:58.215Z,100488.06
2022-10-09T22:03:59.813Z,100482.28
2022-10-09T22:09:01.262Z,100476.97
2022-10-09T22:14:04.166Z,100491.72
2022-10-09T22:19:05.651Z,100481.19
2022-10-09T22:24:07.262Z,100491.63
2022-10-09T22:29:08.752Z,100497.00
2022-10-09T22:34:10.201Z,100502.31
2022-10-09T22:39:12.452Z,100490.75
2022-10-09T22:44:14.237Z,100494.19
2022-10-09T22:49:16.868Z,100496.97
2022-10-09T22:54:19.131Z,100497.13
2022-10-09T22:59:20.656Z,100496.31
2022-10-09T23:04:23.220Z,100487.00
2022-10-09T23:09:28.855Z,100482.75
2022-10-09T23:14:30.416Z,100489.50
2022-10-09T23:19:34.230Z,100482.75
2022-10-09T23:24:35.683Z,100483.66
2022-10-09T23:29:37.306Z,100476.94
2022-10-09T23:34:38.805Z,100474.53
2022-10-09T23:39:40.348Z,100469.59
2022-10-09T23:44:42.216Z,100478.34
2022-10-09T23:49:43.646Z,100481.19
2022-10-09T23:54:45.121Z,100482.22
2022-10-09T23:59:46.536Z,100480.59
